Аэропорт
Камрань (VVCR)

 VVCR / CXR

Viet Nam
VN-34
Камрань
 11.99820, 109.21900  / 40 ft

 VVCR 201730Z 04017KT 9999 FEW015 SCT040 26/23 Q1018 NOSIG
 TAF VVCR 201100Z 2012/2112 04015KT 9999 SCT015 BECMG 2020/2021 34007KT BECMG 2102/2103 04017KT

2020 © VATRUS division (Privacy Policy)